createdAt,value
2022-09-07T00:01:07.502Z,44.67
2022-09-07T00:03:35.233Z,44.56
2022-09-07T00:06:09.418Z,44.45
2022-09-07T00:08:36.402Z,44.46
2022-09-07T00:11:05.766Z,44.67
2022-09-07T00:13:36.100Z,44.09
2022-09-07T00:16:12.671Z,44.31
2022-09-07T00:18:43.770Z,44.28
2022-09-07T00:21:13.534Z,44.05
2022-09-07T00:23:40.841Z,44.36
2022-09-07T00:26:17.343Z,44.18
2022-09-07T00:28:44.747Z,44.16
2022-09-07T00:31:22.110Z,44.10
2022-09-07T00:33:51.026Z,44.28
2022-09-07T00:36:18.948Z,44.16
2022-09-07T00:38:46.493Z,44.25
2022-09-07T00:41:15.011Z,44.05
2022-09-07T00:44:15.689Z,43.78
2022-09-07T00:46:42.614Z,43.78
2022-09-07T00:49:15.278Z,43.96
2022-09-07T00:51:53.254Z,43.83
2022-09-07T00:54:26.288Z,43.98
2022-09-07T00:56:54.154Z,43.87
2022-09-07T00:59:26.917Z,44.20
2022-09-07T01:01:53.919Z,44.07
2022-09-07T01:04:22.352Z,43.89
2022-09-07T01:06:49.726Z,43.76
2022-09-07T01:09:20.676Z,43.85
2022-09-07T01:11:47.590Z,43.83
2022-09-07T01:14:15.882Z,43.65
2022-09-07T01:16:58.279Z,43.67
2022-09-07T01:19:47.986Z,43.73
2022-09-07T01:22:36.261Z,43.66
2022-09-07T01:25:25.025Z,43.74
2022-09-07T01:28:19.445Z,43.39
2022-09-07T01:30:59.236Z,43.37
2022-09-07T01:33:43.917Z,43.67
2022-09-07T01:36:33.941Z,43.58
2022-09-07T01:39:03.271Z,43.43
2022-09-07T01:41:39.106Z,43.33
2022-09-07T01:44:10.114Z,43.20
2022-09-07T01:46:54.554Z,42.93
2022-09-07T01:49:34.153Z,42.91
2022-09-07T01:52:21.514Z,43.13
2022-09-07T01:54:54.972Z,43.12
2022-09-07T01:57:28.527Z,43.31
2022-09-07T02:00:07.362Z,43.30
2022-09-07T02:02:50.197Z,43.25
2022-09-07T02:05:51.241Z,43.03
2022-09-07T02:08:20.630Z,42.94
2022-09-07T02:10:55.809Z,43.00
2022-09-07T02:13:42.493Z,43.12
2022-09-07T02:16:20.487Z,43.13
2022-09-07T02:18:50.718Z,43.09
2022-09-07T02:21:26.355Z,43.09
2022-09-07T02:24:03.420Z,42.80
2022-09-07T02:26:31.347Z,42.83
2022-09-07T02:28:58.252Z,42.81
2022-09-07T02:31:25.038Z,42.90
2022-09-07T02:33:52.173Z,42.80
2022-09-07T02:36:21.568Z,42.64
2022-09-07T02:38:48.404Z,42.55
2022-09-07T02:41:33.056Z,42.31
2022-09-07T02:44:01.328Z,42.26
2022-09-07T02:46:30.916Z,42.40
2022-09-07T02:49:22.597Z,42.16
2022-09-07T02:51:52.306Z,42.28
2022-09-07T02:54:30.888Z,42.15
2022-09-07T02:57:41.072Z,41.93
2022-09-07T03:00:11.523Z,42.04
2022-09-07T03:02:47.401Z,41.97
2022-09-07T03:05:23.678Z,41.98
2022-09-07T03:07:59.890Z,42.02
2022-09-07T03:10:28.449Z,42.03
2022-09-07T03:12:55.178Z,42.00
2022-09-07T03:15:25.793Z,42.12
2022-09-07T03:17:53.692Z,42.20
2022-09-07T03:20:21.326Z,42.20
2022-09-07T03:22:49.656Z,42.20
2022-09-07T03:25:17.067Z,42.38
2022-09-07T03:27:43.957Z,42.28
2022-09-07T03:30:12.819Z,42.19
2022-09-07T03:32:40.287Z,42.35
2022-09-07T03:35:08.650Z,42.13
2022-09-07T03:37:36.818Z,42.14
2022-09-07T03:40:05.876Z,42.15
2022-09-07T03:42:32.760Z,41.99
2022-09-07T03:44:59.547Z,41.91
2022-09-07T03:47:26.367Z,41.59
2022-09-07T03:49:53.221Z,41.39
2022-09-07T03:52:20.022Z,41.08
2022-09-07T03:54:46.921Z,41.16
2022-09-07T03:57:13.766Z,40.72
2022-09-07T03:59:40.569Z,40.27
2022-09-07T04:02:07.569Z,40.14
2022-09-07T04:04:34.448Z,40.04
2022-09-07T04:07:01.268Z,39.83
2022-09-07T04:09:28.280Z,39.52
2022-09-07T04:11:55.046Z,39.41
2022-09-07T04:14:21.910Z,39.12
2022-09-07T04:16:48.948Z,39.16
2022-09-07T04:19:15.706Z,38.42
2022-09-07T04:21:42.498Z,37.94
2022-09-07T04:24:09.468Z,37.78
2022-09-07T04:26:36.353Z,37.21
2022-09-07T04:29:04.031Z,37.10
2022-09-07T04:31:32.792Z,36.83
2022-09-07T04:33:59.645Z,36.51
2022-09-07T04:36:26.466Z,35.98
2022-09-07T04:38:58.892Z,36.64
2022-09-07T04:41:26.640Z,35.96
2022-09-07T04:43:59.156Z,35.42
2022-09-07T04:46:36.793Z,35.06
2022-09-07T04:49:07.252Z,35.27
2022-09-07T04:51:35.244Z,35.16
2022-09-07T04:54:02.961Z,34.56
2022-09-07T04:56:31.188Z,34.74
2022-09-07T04:58:59.506Z,34.03
2022-09-07T05:01:26.419Z,34.07
2022-09-07T05:03:53.587Z,33.66
2022-09-07T05:06:22.473Z,33.52
2022-09-07T05:08:51.760Z,32.92
2022-09-07T05:11:21.199Z,33.15
2022-09-07T05:13:50.218Z,33.03
2022-09-07T05:16:23.649Z,32.87
2022-09-07T05:18:59.268Z,31.96
2022-09-07T05:21:28.073Z,32.84
2022-09-07T05:23:56.235Z,32.17
2022-09-07T05:26:25.690Z,31.68
2022-09-07T05:28:53.027Z,31.46
2022-09-07T05:31:22.183Z,31.22
2022-09-07T05:36:45.353Z,30.72
2022-09-07T05:39:12.409Z,29.93
2022-09-07T05:41:39.246Z,29.73
2022-09-07T05:46:53.607Z,29.16
2022-09-07T05:49:20.393Z,28.57
2022-09-07T05:51:47.238Z,28.94
2022-09-07T05:54:14.369Z,29.22
2022-09-07T05:56:41.303Z,29.33
2022-09-07T05:59:08.048Z,29.76
2022-09-07T06:01:35.435Z,29.09
2022-09-07T06:04:02.638Z,28.96
2022-09-07T06:06:29.396Z,28.85
2022-09-07T06:08:56.354Z,28.50
2022-09-07T06:11:24.990Z,28.24
2022-09-07T06:13:52.158Z,28.06
2022-09-07T06:16:20.136Z,28.40
2022-09-07T06:18:49.000Z,28.74
2022-09-07T06:21:21.649Z,29.00
2022-09-07T06:23:49.569Z,28.94
2022-09-07T06:26:17.518Z,29.05
2022-09-07T06:28:49.101Z,29.38
2022-09-07T06:31:21.655Z,29.27
2022-09-07T06:33:49.335Z,29.50
2022-09-07T06:36:20.981Z,29.29
2022-09-07T06:38:48.757Z,28.98
2022-09-07T06:44:10.722Z,28.61
2022-09-07T06:49:25.308Z,28.46
2022-09-07T06:51:52.495Z,27.78
2022-09-07T06:57:06.669Z,27.65
2022-09-07T06:59:33.447Z,27.54
2022-09-07T07:02:00.144Z,27.07
2022-09-07T07:04:27.030Z,26.31
2022-09-07T07:06:53.734Z,25.98
2022-09-07T07:09:20.520Z,26.52
2022-09-07T07:11:47.482Z,26.25
2022-09-07T07:14:15.237Z,26.06
2022-09-07T07:16:42.135Z,26.17
2022-09-07T07:19:09.177Z,25.71
2022-09-07T07:22:03.144Z,25.66
2022-09-07T07:24:23.250Z,25.86
2022-09-07T07:26:50.019Z,25.37
2022-09-07T07:29:18.745Z,25.86
2022-09-07T07:31:46.457Z,25.70
2022-09-07T07:34:13.233Z,25.72
2022-09-07T07:36:40.035Z,25.73
2022-09-07T07:39:07.070Z,25.06
2022-09-07T07:44:20.912Z,25.27
2022-09-07T07:46:51.661Z,25.78
2022-09-07T07:49:18.531Z,25.27
2022-09-07T07:54:33.903Z,28.07
2022-09-07T07:57:00.914Z,26.79
2022-09-07T07:59:27.657Z,26.41
2022-09-07T08:01:57.585Z,26.06
2022-09-07T08:04:24.469Z,26.56
2022-09-07T08:06:51.144Z,26.64
2022-09-07T08:09:17.872Z,26.42
2022-09-07T08:11:44.855Z,27.70
2022-09-07T08:14:11.564Z,27.35
2022-09-07T08:16:38.345Z,27.81
2022-09-07T08:19:05.311Z,27.16
2022-09-07T08:21:32.168Z,28.51
2022-09-07T08:23:58.903Z,29.06
2022-09-07T08:26:26.389Z,28.25
2022-09-07T08:28:53.274Z,28.58
2022-09-07T08:31:20.078Z,27.21
2022-09-07T08:35:07.628Z,25.56
2022-09-07T08:37:34.454Z,25.75
2022-09-07T08:40:01.255Z,25.56
2022-09-07T08:42:45.943Z,25.81
2022-09-07T08:45:21.359Z,26.27
2022-09-07T08:47:51.429Z,27.37
2022-09-07T08:50:23.958Z,28.36
2022-09-07T08:53:09.555Z,30.17
2022-09-07T08:55:43.153Z,30.27
2022-09-07T08:58:48.116Z,30.00
2022-09-07T09:01:33.299Z,29.62
2022-09-07T09:04:18.017Z,29.44
2022-09-07T09:06:51.089Z,28.85
2022-09-07T09:09:36.819Z,28.24
2022-09-07T09:12:12.346Z,27.89
2022-09-07T09:15:10.653Z,27.84
2022-09-07T09:17:44.043Z,27.29
2022-09-07T09:20:20.068Z,26.81
2022-09-07T09:22:47.257Z,26.70
2022-09-07T09:25:20.761Z,26.45
2022-09-07T09:27:49.438Z,26.56
2022-09-07T09:30:22.019Z,26.51
2022-09-07T09:32:51.298Z,26.43
2022-09-07T09:35:31.812Z,26.38
2022-09-07T09:37:58.743Z,26.72
2022-09-07T09:40:34.862Z,26.32
2022-09-07T09:43:03.179Z,26.38
2022-09-07T09:46:12.240Z,26.67
2022-09-07T09:48:34.251Z,26.40
2022-09-07T09:53:59.676Z,26.37
2022-09-07T09:56:47.071Z,26.29
2022-09-07T10:05:40.028Z,26.30
2022-09-07T10:08:18.601Z,26.67
2022-09-07T10:11:11.685Z,26.32
2022-09-07T10:13:54.818Z,26.78
2022-09-07T10:16:38.585Z,26.83
2022-09-07T10:19:05.340Z,26.40
2022-09-07T10:21:32.751Z,26.52
2022-09-07T10:24:13.475Z,26.94
2022-09-07T10:26:41.470Z,26.52
2022-09-07T10:29:14.691Z,27.12
2022-09-07T10:31:50.809Z,27.35
2022-09-07T10:34:27.697Z,27.65
2022-09-07T10:37:09.681Z,28.22
2022-09-07T10:39:41.231Z,27.80
2022-09-07T10:42:23.062Z,27.58
2022-09-07T10:45:23.678Z,27.95
2022-09-07T10:48:04.132Z,27.78
2022-09-07T10:50:36.497Z,28.04
2022-09-07T10:53:44.666Z,27.56
2022-09-07T10:56:15.144Z,27.57
2022-09-07T10:59:03.916Z,27.69
2022-09-07T11:01:43.562Z,27.84
2022-09-07T11:04:31.692Z,27.89
2022-09-07T11:07:15.744Z,27.84
2022-09-07T11:10:17.556Z,27.64
2022-09-07T11:12:45.320Z,27.80
2022-09-07T11:15:24.805Z,27.55
2022-09-07T11:18:00.761Z,27.63
2022-09-07T11:20:36.427Z,27.47
2022-09-07T11:23:24.215Z,27.44
2022-09-07T11:26:27.403Z,27.47
2022-09-07T11:29:31.397Z,27.33
2022-09-07T11:32:23.317Z,27.32
2022-09-07T11:35:06.037Z,27.60
2022-09-07T11:37:55.736Z,27.28
2022-09-07T11:40:39.409Z,27.36
2022-09-07T11:43:23.797Z,27.82
2022-09-07T11:46:10.762Z,27.35
2022-09-07T11:48:49.194Z,27.80
2022-09-07T11:51:21.884Z,27.84
2022-09-07T11:54:00.145Z,27.48
2022-09-07T11:56:36.856Z,27.41
2022-09-07T11:59:06.890Z,27.75
2022-09-07T12:01:58.116Z,27.96
2022-09-07T12:04:56.340Z,27.63
2022-09-07T12:07:48.218Z,27.55
2022-09-07T12:10:31.123Z,27.98
2022-09-07T12:13:25.116Z,28.17
2022-09-07T12:15:57.914Z,27.69
2022-09-07T12:18:43.350Z,27.85
2022-09-07T12:21:40.854Z,28.17
2022-09-07T12:24:32.171Z,27.84
2022-09-07T12:27:00.518Z,28.24
2022-09-07T12:29:29.375Z,28.01
2022-09-07T12:31:59.670Z,28.03
2022-09-07T12:34:33.719Z,27.60
2022-09-07T12:37:26.233Z,27.65
2022-09-07T12:40:30.593Z,28.03
2022-09-07T12:43:12.564Z,28.08
2022-09-07T12:45:39.491Z,27.75
2022-09-07T12:48:15.362Z,28.13
2022-09-07T12:50:59.577Z,27.92
2022-09-07T12:53:52.140Z,27.85
2022-09-07T12:56:41.126Z,28.00
2022-09-07T12:59:32.104Z,28.28
2022-09-07T13:02:08.294Z,28.41
2022-09-07T13:04:41.244Z,28.08
2022-09-07T13:07:45.442Z,27.98
2022-09-07T13:10:31.698Z,28.06
2022-09-07T13:13:04.984Z,28.27
2022-09-07T13:15:35.749Z,28.51
2022-09-07T13:18:02.568Z,28.65
2022-09-07T13:20:30.180Z,28.07
2022-09-07T13:23:19.771Z,28.28
2022-09-07T13:25:50.526Z,28.41
2022-09-07T13:28:50.369Z,28.46
2022-09-07T13:31:39.483Z,28.39
2022-09-07T13:34:34.239Z,28.61
2022-09-07T13:37:03.538Z,28.54
2022-09-07T13:39:38.315Z,28.23
2022-09-07T13:42:06.745Z,28.50
2022-09-07T13:44:34.486Z,28.61
2022-09-07T13:47:31.904Z,28.33
2022-09-07T13:50:22.276Z,28.77
2022-09-07T13:53:26.695Z,28.33
2022-09-07T13:56:05.432Z,28.66
2022-09-07T13:58:39.724Z,28.74
2022-09-07T14:01:08.254Z,28.86
2022-09-07T14:03:49.138Z,28.97
2022-09-07T14:06:21.669Z,28.74
2022-09-07T14:08:50.833Z,28.88
2022-09-07T14:11:39.747Z,28.74
2022-09-07T14:14:16.072Z,26.52
2022-09-07T14:16:56.622Z,24.57
2022-09-07T14:19:26.996Z,26.28
2022-09-07T14:22:07.347Z,26.42
2022-09-07T14:24:40.834Z,26.67
2022-09-07T14:27:19.274Z,27.02
2022-09-07T14:29:46.004Z,27.30
2022-09-07T14:32:20.785Z,27.10
2022-09-07T14:34:48.146Z,26.88
2022-09-07T14:37:17.359Z,27.35
2022-09-07T14:39:48.025Z,27.39
2022-09-07T14:42:23.573Z,27.93
2022-09-07T14:44:50.654Z,27.97
2022-09-07T14:47:32.392Z,27.77
2022-09-07T14:50:02.184Z,28.16
2022-09-07T14:53:34.192Z,28.29
2022-09-07T14:55:39.985Z,28.29
2022-09-07T14:58:16.550Z,28.42
2022-09-07T15:00:45.976Z,28.41
2022-09-07T15:03:30.206Z,28.67
2022-09-07T15:06:01.242Z,28.89
2022-09-07T15:08:48.784Z,28.81
2022-09-07T15:11:33.856Z,29.13
2022-09-07T15:14:10.894Z,28.94
2022-09-07T15:16:41.996Z,29.05
2022-09-07T15:19:17.985Z,29.31
2022-09-07T15:21:45.272Z,29.47
2022-09-07T15:24:12.137Z,29.62
2022-09-07T15:29:29.735Z,29.96
2022-09-07T15:32:03.520Z,29.85
2022-09-07T15:34:31.477Z,29.73
2022-09-07T15:36:58.927Z,30.11
2022-09-07T15:39:29.018Z,30.26
2022-09-07T15:41:55.980Z,30.27
2022-09-07T15:44:26.178Z,30.64
2022-09-07T15:49:49.205Z,30.56
2022-09-07T15:52:18.069Z,30.90
2022-09-07T15:54:44.893Z,30.83
2022-09-07T15:59:58.733Z,31.11
2022-09-07T16:05:13.105Z,31.20
2022-09-07T16:10:26.671Z,31.50
2022-09-07T16:13:02.411Z,31.68
2022-09-07T16:15:31.426Z,31.52
2022-09-07T16:17:58.162Z,31.86
2022-09-07T16:20:24.880Z,31.73
2022-09-07T16:25:38.738Z,32.13
2022-09-07T16:28:06.000Z,32.49
2022-09-07T16:30:33.151Z,32.75
2022-09-07T16:32:59.885Z,32.67
2022-09-07T16:35:26.768Z,33.00
2022-09-07T16:40:43.003Z,32.66
2022-09-07T16:43:09.991Z,32.96
2022-09-07T16:48:23.664Z,33.02
2022-09-07T16:51:01.217Z,33.17
2022-09-07T16:53:31.082Z,33.25
2022-09-07T16:56:06.604Z,33.38
2022-09-07T16:58:36.503Z,33.22
2022-09-07T17:01:05.387Z,33.41
2022-09-07T17:03:32.157Z,33.48
2022-09-07T17:06:02.890Z,33.84
2022-09-07T17:08:29.788Z,33.88
2022-09-07T17:11:00.556Z,33.76
2022-09-07T17:13:27.856Z,33.96
2022-09-07T17:15:54.507Z,33.77
2022-09-07T17:19:28.785Z,33.81
2022-09-07T17:21:09.812Z,34.47
2022-09-07T17:23:45.593Z,34.47
2022-09-07T17:26:20.347Z,34.64
2022-09-07T17:28:50.646Z,34.13
2022-09-07T17:34:11.588Z,34.70
2022-09-07T17:36:38.446Z,34.42
2022-09-07T17:39:20.477Z,34.50
2022-09-07T17:41:48.770Z,35.05
2022-09-07T17:44:15.505Z,34.79
2022-09-07T17:46:42.226Z,35.08
2022-09-07T17:49:10.437Z,34.75
2022-09-07T17:51:37.223Z,34.94
2022-09-07T17:54:13.206Z,35.06
2022-09-07T17:56:41.294Z,35.42
2022-09-07T18:01:55.775Z,35.16
2022-09-07T18:04:22.965Z,35.18
2022-09-07T18:06:50.274Z,35.74
2022-09-07T18:09:17.151Z,35.64
2022-09-07T18:11:45.469Z,35.64
2022-09-07T18:14:13.535Z,35.44
2022-09-07T18:16:40.464Z,35.94
2022-09-07T18:19:07.220Z,35.91
2022-09-07T18:21:35.676Z,35.85
2022-09-07T18:24:08.193Z,36.05
2022-09-07T18:26:37.205Z,36.03
2022-09-07T18:29:05.595Z,36.09
2022-09-07T18:31:35.532Z,36.43
2022-09-07T18:34:02.273Z,36.08
2022-09-07T18:36:29.623Z,36.52
2022-09-07T18:38:56.553Z,36.51
2022-09-07T18:41:24.756Z,36.73
2022-09-07T18:43:51.556Z,36.89
2022-09-07T18:46:21.445Z,36.41
2022-09-07T18:48:48.256Z,36.53
2022-09-07T18:51:16.036Z,36.79
2022-09-07T18:53:43.749Z,36.71
2022-09-07T18:56:14.576Z,36.94
2022-09-07T18:58:42.156Z,37.12
2022-09-07T19:01:11.350Z,37.13
2022-09-07T19:03:38.218Z,37.38
2022-09-07T19:06:08.031Z,37.47
2022-09-07T19:08:37.615Z,37.53
2022-09-07T19:11:12.966Z,37.47
2022-09-07T19:13:39.918Z,37.63
2022-09-07T19:16:19.873Z,37.47
2022-09-07T19:18:47.517Z,37.51
2022-09-07T19:21:16.912Z,37.82
2022-09-07T19:23:43.743Z,37.64
2022-09-07T19:26:10.691Z,37.67
2022-09-07T19:28:37.383Z,37.82
2022-09-07T19:31:07.776Z,38.18
2022-09-07T19:33:34.943Z,37.92
2022-09-07T19:36:06.116Z,38.06
2022-09-07T19:38:33.140Z,38.33
2022-09-07T19:41:01.516Z,38.03
2022-09-07T19:43:33.288Z,38.59
2022-09-07T19:46:01.088Z,38.50
2022-09-07T19:48:28.059Z,38.66
2022-09-07T19:51:01.090Z,38.77
2022-09-07T19:53:31.465Z,38.55
2022-09-07T19:56:10.367Z,38.54
2022-09-07T19:58:39.209Z,38.78
2022-09-07T20:01:17.191Z,38.74
2022-09-07T20:03:46.787Z,38.73
2022-09-07T20:06:16.325Z,38.84
2022-09-07T20:08:44.348Z,39.13
2022-09-07T20:11:13.862Z,39.04
2022-09-07T20:13:41.046Z,39.43
2022-09-07T20:16:13.219Z,39.03
2022-09-07T20:18:40.492Z,39.19
2022-09-07T20:21:09.156Z,39.32
2022-09-07T20:23:36.297Z,39.22
2022-09-07T20:26:06.983Z,39.27
2022-09-07T20:28:34.417Z,39.31
2022-09-07T20:31:08.069Z,39.35
2022-09-07T20:33:35.586Z,39.51
2022-09-07T20:36:07.034Z,39.69
2022-09-07T20:38:42.370Z,39.78
2022-09-07T20:41:14.276Z,39.53
2022-09-07T20:43:41.358Z,39.82
2022-09-07T20:46:08.438Z,39.89
2022-09-07T20:48:36.058Z,39.74
2022-09-07T20:51:03.171Z,39.78
2022-09-07T20:53:30.482Z,40.03
2022-09-07T20:56:11.056Z,40.08
2022-09-07T20:58:37.739Z,39.95
2022-09-07T21:01:04.494Z,40.06
2022-09-07T21:03:31.422Z,40.25
2022-09-07T21:06:05.448Z,40.01
2022-09-07T21:08:39.951Z,40.21
2022-09-07T21:11:12.048Z,40.52
2022-09-07T21:13:38.851Z,40.62
2022-09-07T21:16:11.267Z,40.45
2022-09-07T21:18:41.643Z,40.56
2022-09-07T21:21:23.931Z,40.55
2022-09-07T21:24:01.360Z,40.59
2022-09-07T21:26:28.751Z,40.48
2022-09-07T21:29:03.335Z,40.73
2022-09-07T21:31:31.658Z,40.83
2022-09-07T21:34:01.100Z,41.05
2022-09-07T21:36:27.982Z,41.23
2022-09-07T21:38:55.298Z,40.80
2022-09-07T21:41:23.796Z,40.93
2022-09-07T21:43:58.225Z,41.14
2022-09-07T21:46:26.063Z,41.04
2022-09-07T21:48:53.142Z,41.30
2022-09-07T21:51:19.983Z,41.38
2022-09-07T21:53:51.873Z,41.29
2022-09-07T21:56:18.831Z,41.45
2022-09-07T21:58:46.000Z,41.47
2022-09-07T22:01:19.599Z,41.63
2022-09-07T22:03:48.640Z,41.37
2022-09-07T22:06:15.617Z,41.60
2022-09-07T22:08:42.907Z,41.62
2022-09-07T22:11:12.626Z,41.66
2022-09-07T22:13:40.139Z,41.91
2022-09-07T22:16:07.460Z,41.61
2022-09-07T22:18:34.928Z,41.67
2022-09-07T22:21:09.000Z,41.87
2022-09-07T22:23:41.811Z,42.12
2022-09-07T22:26:09.043Z,41.90
2022-09-07T22:28:36.761Z,42.00
2022-09-07T22:31:16.858Z,42.04
2022-09-07T22:33:44.946Z,42.25
2022-09-07T22:36:19.992Z,42.08
2022-09-07T22:38:49.250Z,42.25
2022-09-07T22:41:22.683Z,42.09
2022-09-07T22:43:49.700Z,42.42
2022-09-07T22:46:18.017Z,42.38
2022-09-07T22:48:45.055Z,42.39
2022-09-07T22:51:12.396Z,42.43
2022-09-07T22:53:41.482Z,42.50
2022-09-07T22:56:14.064Z,42.60
2022-09-07T22:58:45.953Z,42.63
2022-09-07T23:01:12.702Z,42.54
2022-09-07T23:03:39.818Z,42.69
2022-09-07T23:06:06.717Z,42.76
2022-09-07T23:08:33.519Z,42.93
2022-09-07T23:11:06.482Z,42.84
2022-09-07T23:13:33.409Z,42.94
2022-09-07T23:16:04.321Z,43.09
2022-09-07T23:18:31.064Z,43.18
2022-09-07T23:21:01.625Z,43.36
2022-09-07T23:23:29.733Z,43.23
2022-09-07T23:25:56.751Z,43.23
2022-09-07T23:28:23.448Z,43.31
2022-09-07T23:30:51.138Z,43.14
2022-09-07T23:33:18.012Z,43.15
2022-09-07T23:35:59.725Z,43.26
2022-09-07T23:38:27.476Z,43.35
2022-09-07T23:40:55.242Z,43.52
2022-09-07T23:43:22.863Z,43.52
2022-09-07T23:45:49.907Z,43.33
2022-09-07T23:48:16.744Z,43.53
2022-09-07T23:50:44.659Z,43.58
2022-09-07T23:53:12.180Z,43.79
2022-09-07T23:55:39.454Z,43.77
2022-09-07T23:58:07.448Z,43.64
